createdAt,value
2022-10-11T00:00:35.107Z,15.67
2022-10-11T00:03:22.835Z,15.07
2022-10-11T00:05:50.106Z,14.27
2022-10-11T00:08:17.683Z,15.03
2022-10-11T00:10:44.940Z,14.67
2022-10-11T00:13:12.254Z,11.37
2022-10-11T00:15:41.151Z,13.93
2022-10-11T00:18:08.361Z,17.20
2022-10-11T00:20:35.561Z,13.73
2022-10-11T00:23:03.185Z,17.23
2022-10-11T00:25:30.484Z,14.90
2022-10-11T00:27:58.721Z,15.50
2022-10-11T00:30:26.444Z,14.13
2022-10-11T00:32:53.867Z,15.07
2022-10-11T00:35:20.977Z,12.87
2022-10-11T00:37:48.474Z,14.13
2022-10-11T00:40:18.840Z,13.20
2022-10-11T00:42:46.719Z,13.67
2022-10-11T00:46:00.088Z,13.57
2022-10-11T00:48:42.247Z,11.20
2022-10-11T00:51:38.739Z,16.23
2022-10-11T00:54:07.779Z,11.80
2022-10-11T00:56:38.982Z,18.87
2022-10-11T00:59:17.952Z,13.67
2022-10-11T01:01:46.062Z,14.00
2022-10-11T01:04:13.437Z,17.57
2022-10-11T01:06:41.509Z,13.43
2022-10-11T01:09:09.339Z,14.20
2022-10-11T01:11:39.372Z,18.87
2022-10-11T01:14:28.053Z,14.63
2022-10-11T01:17:06.472Z,11.87
2022-10-11T01:20:08.937Z,14.03
2022-10-11T01:23:04.114Z,13.37
2022-10-11T01:25:49.523Z,16.63
2022-10-11T01:28:35.158Z,10.87
2022-10-11T01:31:08.305Z,16.63
2022-10-11T01:33:38.702Z,13.63
2022-10-11T01:36:28.201Z,14.67
2022-10-11T01:39:13.381Z,17.87
2022-10-11T01:41:53.944Z,14.93
2022-10-11T01:44:25.085Z,17.30
2022-10-11T01:46:53.361Z,11.83
2022-10-11T01:49:20.972Z,12.97
2022-10-11T01:51:54.748Z,16.40
2022-10-11T01:55:08.243Z,18.87
2022-10-11T01:57:53.747Z,14.97
2022-10-11T02:00:28.168Z,15.00
2022-10-11T02:03:12.232Z,15.47
2022-10-11T02:05:52.446Z,16.00
2022-10-11T02:08:40.930Z,13.00
2022-10-11T02:11:33.132Z,12.93
2022-10-11T02:14:14.507Z,17.00
2022-10-11T02:16:58.192Z,16.43
2022-10-11T02:19:30.315Z,15.83
2022-10-11T02:22:03.755Z,17.83
2022-10-11T02:24:34.896Z,20.80
2022-10-11T02:27:04.410Z,14.07
2022-10-11T02:29:37.202Z,16.30
2022-10-11T02:32:06.129Z,18.70
2022-10-11T02:34:41.627Z,16.10
2022-10-11T02:37:33.457Z,13.73
2022-10-11T02:40:15.224Z,14.97
2022-10-11T02:43:13.893Z,15.40
2022-10-11T02:45:59.012Z,14.30
2022-10-11T02:48:30.182Z,13.87
2022-10-11T02:50:59.376Z,14.50
2022-10-11T02:53:27.383Z,13.37
2022-10-11T02:55:55.939Z,12.37
2022-10-11T02:58:24.676Z,13.47
2022-10-11T03:00:52.253Z,14.80
2022-10-11T03:03:19.685Z,11.37
2022-10-11T03:05:47.176Z,16.77
2022-10-11T03:08:17.092Z,13.00
2022-10-11T03:10:44.851Z,16.17
2022-10-11T03:13:17.849Z,14.30
2022-10-11T03:16:02.787Z,15.87
2022-10-11T03:18:31.879Z,13.87
2022-10-11T03:20:59.340Z,15.97
2022-10-11T03:23:26.722Z,12.87
2022-10-11T03:25:54.388Z,13.27
2022-10-11T03:28:21.942Z,18.00
2022-10-11T03:30:50.319Z,16.80
2022-10-11T03:33:18.889Z,16.27
2022-10-11T03:35:47.669Z,13.70
2022-10-11T03:38:18.862Z,16.63
2022-10-11T03:40:46.597Z,15.33
2022-10-11T03:43:14.033Z,16.07
2022-10-11T03:45:44.627Z,17.30
2022-10-11T03:48:13.893Z,18.07
2022-10-11T03:50:41.129Z,14.53
2022-10-11T03:53:09.101Z,18.33
2022-10-11T03:55:41.176Z,16.00
2022-10-11T03:58:08.854Z,16.77
2022-10-11T04:00:37.063Z,14.40
2022-10-11T04:03:04.631Z,14.60
2022-10-11T04:05:32.011Z,20.17
2022-10-11T04:07:59.315Z,16.60
2022-10-11T04:10:27.136Z,16.27
2022-10-11T04:12:55.121Z,15.93
2022-10-11T04:15:22.446Z,18.70
2022-10-11T04:17:50.663Z,20.37
2022-10-11T04:20:18.145Z,15.50
2022-10-11T04:22:45.676Z,16.03
2022-10-11T04:25:13.272Z,16.47
2022-10-11T04:27:44.162Z,14.70
2022-10-11T04:30:13.032Z,16.30
2022-10-11T04:32:41.333Z,13.50
2022-10-11T04:35:09.500Z,15.80
2022-10-11T04:37:36.904Z,19.40
2022-10-11T04:40:08.566Z,16.00
2022-10-11T04:42:36.289Z,17.93
2022-10-11T04:45:03.900Z,19.10
2022-10-11T04:47:32.060Z,16.17
2022-10-11T04:50:00.075Z,15.70
2022-10-11T04:52:27.369Z,17.50
2022-10-11T04:54:55.118Z,17.23
2022-10-11T04:57:22.756Z,16.87
2022-10-11T04:59:50.529Z,19.90
2022-10-11T05:02:19.907Z,19.37
2022-10-11T05:04:47.312Z,13.57
2022-10-11T05:07:16.643Z,16.90
2022-10-11T05:09:45.276Z,16.70
2022-10-11T05:12:15.364Z,19.47
2022-10-11T05:14:44.942Z,17.90
2022-10-11T05:17:22.315Z,16.67
2022-10-11T05:19:49.775Z,16.03
2022-10-11T05:22:17.771Z,23.93
2022-10-11T05:24:45.102Z,18.70
2022-10-11T05:27:12.498Z,15.83
2022-10-11T05:29:41.464Z,20.60
2022-10-11T05:32:09.009Z,16.97
2022-10-11T05:34:37.475Z,19.10
2022-10-11T05:37:04.891Z,18.27
2022-10-11T05:39:33.351Z,19.87
2022-10-11T05:42:01.049Z,19.90
2022-10-11T05:44:28.457Z,25.00
2022-10-11T05:46:59.555Z,19.47
2022-10-11T05:49:26.943Z,18.37
2022-10-11T05:51:54.819Z,20.20
2022-10-11T05:54:22.733Z,21.17
2022-10-11T05:56:50.028Z,16.67
2022-10-11T05:59:17.628Z,21.07
2022-10-11T06:01:45.673Z,20.63
2022-10-11T06:04:14.040Z,20.50
2022-10-11T06:06:41.514Z,27.37
2022-10-11T06:09:11.226Z,19.60
2022-10-11T06:11:41.577Z,21.90
2022-10-11T06:14:09.828Z,29.77
2022-10-11T06:16:38.264Z,28.67
2022-10-11T06:19:05.793Z,30.37
2022-10-11T06:21:34.530Z,36.33
2022-10-11T06:24:02.946Z,37.10
2022-10-11T06:26:31.981Z,27.83
2022-10-11T06:29:00.061Z,25.27
2022-10-11T06:31:28.471Z,27.83
2022-10-11T06:33:56.789Z,26.47
2022-10-11T06:36:24.777Z,21.63
2022-10-11T06:41:37.057Z,21.43
2022-10-11T06:44:11.941Z,22.20
2022-10-11T06:46:41.616Z,18.70
2022-10-11T06:49:09.609Z,18.70
2022-10-11T06:51:37.443Z,17.97
2022-10-11T06:54:06.102Z,21.80
2022-10-11T06:56:34.484Z,17.80
2022-10-11T06:59:03.691Z,19.60
2022-10-11T07:01:31.796Z,16.60
2022-10-11T07:04:03.423Z,21.97
2022-10-11T07:06:33.202Z,20.13
2022-10-11T07:09:01.762Z,19.03
2022-10-11T07:11:31.982Z,21.73
2022-10-11T07:14:02.580Z,19.67
2022-10-11T07:16:32.076Z,16.87
2022-10-11T07:19:02.325Z,19.83
2022-10-11T07:21:31.388Z,19.53
2022-10-11T07:24:00.219Z,18.93
2022-10-11T07:26:31.350Z,22.27
2022-10-11T07:29:05.017Z,24.23
2022-10-11T07:31:33.514Z,18.20
2022-10-11T07:34:00.887Z,21.77
2022-10-11T07:36:28.725Z,23.27
2022-10-11T07:38:56.438Z,19.03
2022-10-11T07:41:24.440Z,20.70
2022-10-11T07:43:52.810Z,19.83
2022-10-11T07:46:27.909Z,23.90
2022-10-11T07:48:56.463Z,20.67
2022-10-11T07:51:25.476Z,21.67
2022-10-11T07:53:56.015Z,22.23
2022-10-11T07:56:27.045Z,18.77
2022-10-11T07:59:00.458Z,18.37
2022-10-11T08:01:30.249Z,17.87
2022-10-11T08:03:58.344Z,16.30
2022-10-11T08:06:29.943Z,18.23
2022-10-11T08:09:00.288Z,21.53
2022-10-11T08:11:33.512Z,19.77
2022-10-11T08:14:01.998Z,16.03
2022-10-11T08:16:29.518Z,18.37
2022-10-11T08:18:57.358Z,22.50
2022-10-11T10:19:56.606Z,11.73
2022-10-11T10:22:28.153Z,10.13
2022-10-11T10:24:55.872Z,8.43
2022-10-11T10:27:25.315Z,9.40
2022-10-11T10:30:15.950Z,8.17
2022-10-11T10:33:21.051Z,6.90
2022-10-11T10:36:15.364Z,9.07
2022-10-11T10:38:52.415Z,6.47
2022-10-11T10:41:22.423Z,9.33
2022-10-11T10:43:58.066Z,8.23
2022-10-11T10:46:47.723Z,6.50
2022-10-11T10:50:18.308Z,6.47
2022-10-11T10:53:28.765Z,5.57
2022-10-11T10:56:21.752Z,7.20
2022-10-11T10:58:54.177Z,5.00
2022-10-11T11:01:28.583Z,6.23
2022-10-11T11:04:22.236Z,9.97
2022-10-11T11:06:51.121Z,6.60
2022-10-11T11:13:13.724Z,10.50
2022-10-11T11:16:03.640Z,4.70
2022-10-11T11:18:48.948Z,9.17
2022-10-11T11:21:27.701Z,9.87
2022-10-11T11:24:13.622Z,17.77
2022-10-11T11:26:44.988Z,4.03
2022-10-11T11:29:30.772Z,5.20
2022-10-11T11:32:41.230Z,3.80
2022-10-11T11:35:45.753Z,4.63
2022-10-11T12:08:35.861Z,10.03
2022-10-11T12:11:04.387Z,5.03
2022-10-11T12:13:35.978Z,3.97
2022-10-11T12:16:05.935Z,5.73
2022-10-11T12:18:38.178Z,8.17
2022-10-11T12:21:31.857Z,5.87
2022-10-11T12:24:07.307Z,3.50
2022-10-11T12:26:46.739Z,3.80
2022-10-11T12:29:44.823Z,3.07
2022-10-11T12:32:52.287Z,4.33
2022-10-11T12:49:18.894Z,7.27
2022-10-11T12:52:05.242Z,5.63
2022-10-11T12:55:03.148Z,3.60
2022-10-11T12:58:15.593Z,4.20
2022-10-11T13:23:37.862Z,8.60
2022-10-11T13:26:05.405Z,2.67
2022-10-11T13:28:36.284Z,7.03
2022-10-11T13:31:05.428Z,10.03
2022-10-11T13:33:39.540Z,6.50
2022-10-11T13:36:17.786Z,6.67
2022-10-11T13:38:57.937Z,3.93
2022-10-11T13:41:29.972Z,10.30
2022-10-11T13:43:58.891Z,6.67
2022-10-11T13:46:28.457Z,13.60
2022-10-11T13:49:02.590Z,2.07
2022-10-11T13:51:37.656Z,5.27
2022-10-11T13:54:13.818Z,4.80
2022-10-11T13:56:48.835Z,5.73
2022-10-11T13:59:28.135Z,7.20
2022-10-11T14:02:01.049Z,11.13
2022-10-11T14:04:29.959Z,6.23
2022-10-11T14:07:02.632Z,6.07
2022-10-11T14:09:35.530Z,9.30
2022-10-11T14:12:38.061Z,10.50
2022-10-11T14:15:26.637Z,7.20
2022-10-11T14:17:54.104Z,10.10
2022-10-11T14:20:39.092Z,4.73
2022-10-11T14:23:06.989Z,4.90
2022-10-11T14:25:34.502Z,4.93
2022-10-11T14:28:05.894Z,6.07
2022-10-11T14:30:33.172Z,4.00
2022-10-11T14:33:01.510Z,5.20
2022-10-11T14:35:31.873Z,3.10
2022-10-11T14:37:59.389Z,6.50
2022-10-11T14:40:29.632Z,6.40
2022-10-11T14:42:57.120Z,3.30
2022-10-11T14:45:24.903Z,8.63
2022-10-11T14:47:52.072Z,4.97
2022-10-11T14:50:27.945Z,3.37
2022-10-11T14:52:55.503Z,8.83
2022-10-11T14:55:23.023Z,7.97
2022-10-11T14:57:50.548Z,10.03
2022-10-11T15:00:23.650Z,6.73
2022-10-11T15:02:52.790Z,6.30
2022-10-11T15:05:21.513Z,3.03
2022-10-11T15:07:49.154Z,3.47
2022-10-11T15:10:22.305Z,6.80
2022-10-11T15:12:51.340Z,6.63
2022-10-11T15:15:21.070Z,4.00
2022-10-11T15:17:53.605Z,4.43
2022-10-11T15:20:26.950Z,4.40
2022-10-11T15:22:55.020Z,8.33
2022-10-11T15:25:23.305Z,5.43
2022-10-11T15:27:51.067Z,9.73
2022-10-11T15:30:24.087Z,8.13
2022-10-11T15:32:51.989Z,5.93
2022-10-11T15:35:20.964Z,6.67
2022-10-11T15:37:47.924Z,4.83
2022-10-11T15:40:18.221Z,6.40
2022-10-11T15:42:45.605Z,11.97
2022-10-11T15:45:13.403Z,5.90
2022-10-11T15:47:40.764Z,6.80
2022-10-11T15:50:33.791Z,6.80
2022-10-11T15:53:30.955Z,6.40
2022-10-11T15:56:02.263Z,7.97
2022-10-11T15:58:38.042Z,7.60
2022-10-11T16:01:08.720Z,6.27
2022-10-11T16:03:36.357Z,6.13
2022-10-11T16:06:05.605Z,6.40
2022-10-11T16:08:34.087Z,7.97
2022-10-11T16:11:01.709Z,5.80
2022-10-11T16:13:28.801Z,8.30
2022-10-11T16:15:56.250Z,8.83
2022-10-11T16:18:23.409Z,8.43
2022-10-11T16:20:51.970Z,9.23
2022-10-11T16:23:20.556Z,11.53
2022-10-11T16:26:00.089Z,10.37
2022-10-11T16:28:28.019Z,8.33
2022-10-11T16:30:55.441Z,11.60
2022-10-11T16:33:22.968Z,9.07
2022-10-11T16:35:50.139Z,11.83
2022-10-11T16:38:17.541Z,5.27
2022-10-11T16:40:44.652Z,9.77
2022-10-11T16:43:11.622Z,11.27
2022-10-11T16:45:38.785Z,11.63
2022-10-11T16:48:05.885Z,6.80
2022-10-11T16:50:38.310Z,7.53
2022-10-11T16:53:06.591Z,9.17
2022-10-11T16:55:33.525Z,13.17
2022-10-11T16:58:00.585Z,11.37
2022-10-11T17:00:27.549Z,10.10
2022-10-11T17:02:54.958Z,10.10
2022-10-11T17:05:21.894Z,7.80
2022-10-11T17:07:51.444Z,9.50
2022-10-11T17:10:18.390Z,16.87
2022-10-11T17:12:49.896Z,11.33
2022-10-11T17:15:17.135Z,10.93
2022-10-11T17:17:44.244Z,8.23
2022-10-11T17:20:11.330Z,11.90
2022-10-11T17:22:38.418Z,14.63
2022-10-11T17:25:05.842Z,14.00
2022-10-11T17:27:33.006Z,13.23
2022-10-11T17:29:59.944Z,13.83
2022-10-11T17:32:29.258Z,9.67
2022-10-11T17:34:57.350Z,15.23
2022-10-11T17:37:24.428Z,10.40
2022-10-11T17:39:51.507Z,14.77
2022-10-11T17:42:18.429Z,12.90
2022-10-11T17:44:45.365Z,18.00
2022-10-11T17:47:13.425Z,17.23
2022-10-11T17:49:40.392Z,11.93
2022-10-11T17:52:07.534Z,12.30
2022-10-11T17:54:34.433Z,14.47
2022-10-11T17:57:01.375Z,17.30
2022-10-11T17:59:30.482Z,12.73
2022-10-11T18:01:57.561Z,14.07
2022-10-11T18:04:27.189Z,17.07
2022-10-11T18:06:54.438Z,14.17
2022-10-11T18:09:22.645Z,13.40
2022-10-11T18:11:50.142Z,12.23
2022-10-11T18:14:17.597Z,12.43
2022-10-11T18:16:44.798Z,9.33
2022-10-11T18:19:13.255Z,13.97
2022-10-11T18:21:40.496Z,13.13
2022-10-11T18:24:15.345Z,10.67
2022-10-11T18:26:43.472Z,17.40
2022-10-11T18:29:12.604Z,13.57
2022-10-11T18:31:40.802Z,10.13
2022-10-11T18:34:10.726Z,13.07
2022-10-11T18:36:38.288Z,13.47
2022-10-11T18:39:08.157Z,13.60
2022-10-11T18:41:35.593Z,12.27
2022-10-11T18:44:06.616Z,15.33
2022-10-11T18:46:34.377Z,16.13
2022-10-11T18:49:02.055Z,15.87
2022-10-11T18:51:30.781Z,15.53
2022-10-11T18:53:58.936Z,18.60
2022-10-11T18:56:28.198Z,13.90
2022-10-11T18:58:57.259Z,19.97
2022-10-11T19:01:30.804Z,22.27
2022-10-11T19:03:59.667Z,15.50
2022-10-11T19:06:37.207Z,21.23
2022-10-11T19:09:10.617Z,21.60
2022-10-11T19:11:38.220Z,20.10
2022-10-11T19:14:11.433Z,18.87
2022-10-11T19:16:45.300Z,20.67
2022-10-11T19:19:13.279Z,17.87
2022-10-11T19:21:40.440Z,18.97
2022-10-11T19:24:07.681Z,20.63
2022-10-11T19:26:38.076Z,21.23
2022-10-11T19:29:19.051Z,16.27
2022-10-11T19:31:48.622Z,23.50
2022-10-11T19:34:15.958Z,19.63
2022-10-11T19:36:43.552Z,24.57
2022-10-11T19:39:15.135Z,24.70
2022-10-11T19:41:42.671Z,16.83
2022-10-11T19:44:10.444Z,22.90
2022-10-11T19:47:00.215Z,25.00
2022-10-11T19:49:29.221Z,21.93
2022-10-11T19:51:56.247Z,25.97
2022-10-11T19:54:23.651Z,23.90
2022-10-11T19:56:50.884Z,24.80
2022-10-11T19:59:17.988Z,22.33
2022-10-11T20:01:51.070Z,26.27
2022-10-11T20:04:47.110Z,29.83
2022-10-11T20:07:06.787Z,23.00
2022-10-11T20:09:33.748Z,23.97
2022-10-11T20:12:00.871Z,23.47
2022-10-11T20:14:28.029Z,30.07
2022-10-11T20:16:55.147Z,27.60
2022-10-11T20:19:27.687Z,27.17
2022-10-11T20:21:56.744Z,23.07
2022-10-11T20:24:23.704Z,23.77
2022-10-11T20:26:50.794Z,25.00
2022-10-11T20:29:17.792Z,29.93
2022-10-11T20:31:45.212Z,30.37
2022-10-11T20:34:12.210Z,27.03
2022-10-11T20:36:39.357Z,26.50
2022-10-11T20:39:06.676Z,29.83
2022-10-11T20:41:42.879Z,28.87
2022-10-11T20:44:11.199Z,25.53
2022-10-11T20:46:39.542Z,31.37
2022-10-11T20:49:09.269Z,26.10
2022-10-11T20:51:38.432Z,29.03
2022-10-11T20:54:06.077Z,23.20
2022-10-11T20:56:34.099Z,26.03
2022-10-11T20:59:01.625Z,22.80
2022-10-11T21:01:32.749Z,34.33
2022-10-11T21:04:01.511Z,28.47
2022-10-11T21:06:30.078Z,25.43
2022-10-11T21:08:59.105Z,25.57
2022-10-11T21:11:33.518Z,24.93
2022-10-11T21:14:03.286Z,25.70
2022-10-11T21:16:30.750Z,25.87
2022-10-11T21:18:59.265Z,26.13
2022-10-11T21:21:27.861Z,23.07
2022-10-11T21:23:56.396Z,25.67
2022-10-11T21:26:23.820Z,29.10
2022-10-11T21:28:51.306Z,27.40
2022-10-11T21:31:20.071Z,27.97
2022-10-11T21:33:47.373Z,29.73
2022-10-11T21:36:20.479Z,29.97
2022-10-11T21:38:49.710Z,25.33
2022-10-11T21:41:19.910Z,30.83
2022-10-11T21:43:47.431Z,35.27
2022-10-11T21:46:18.279Z,32.13
2022-10-11T21:48:45.899Z,31.03
2022-10-11T21:51:20.166Z,31.87
2022-10-11T21:53:47.236Z,26.10
2022-10-11T21:56:14.994Z,31.27
2022-10-11T21:58:41.991Z,33.60
2022-10-11T22:01:11.530Z,27.93
2022-10-11T22:03:38.536Z,30.47
2022-10-11T22:06:05.843Z,26.60
2022-10-11T22:08:32.835Z,29.83
2022-10-11T22:11:00.857Z,34.63
2022-10-11T22:13:29.586Z,26.60
2022-10-11T22:15:57.146Z,33.23
2022-10-11T22:18:24.698Z,31.97
2022-10-11T22:20:51.983Z,38.37
2022-10-11T22:23:19.291Z,31.03
2022-10-11T22:25:46.277Z,27.80
2022-10-11T22:28:13.593Z,32.83
2022-10-11T22:30:40.666Z,30.90
2022-10-11T22:33:07.595Z,26.83
2022-10-11T22:35:39.142Z,31.10
2022-10-11T22:38:06.327Z,32.10
2022-10-11T22:40:33.463Z,33.87
2022-10-11T22:43:00.931Z,32.07
2022-10-11T22:45:27.825Z,28.87
2022-10-11T22:47:54.693Z,37.90
2022-10-11T22:50:21.919Z,29.87
2022-10-11T22:52:48.827Z,34.63
2022-10-11T22:55:19.883Z,29.73
2022-10-11T22:57:47.425Z,33.50
2022-10-11T23:00:14.769Z,38.77
2022-10-11T23:02:41.697Z,33.60
2022-10-11T23:05:08.908Z,37.90
2022-10-11T23:07:36.297Z,33.67
2022-10-11T23:10:03.997Z,28.93
2022-10-11T23:12:31.052Z,32.50
2022-10-11T23:14:57.962Z,29.40
2022-10-11T23:17:24.866Z,33.13
2022-10-11T23:19:52.715Z,29.13
2022-10-11T23:22:19.698Z,33.20
2022-10-11T23:24:46.607Z,32.57
2022-10-11T23:27:13.735Z,30.37
2022-10-11T23:29:41.161Z,29.87
2022-10-11T23:32:09.002Z,36.73
2022-10-11T23:34:36.569Z,34.17
2022-10-11T23:37:04.522Z,27.97
2022-10-11T23:39:31.845Z,29.30
2022-10-11T23:41:59.107Z,29.97
2022-10-11T23:44:25.950Z,30.77
2022-10-11T23:46:52.841Z,29.50
2022-10-11T23:49:20.037Z,29.57
2022-10-11T23:51:47.017Z,26.77
2022-10-11T23:54:13.962Z,31.47
2022-10-11T23:56:41.124Z,29.97
2022-10-11T23:59:08.152Z,26.27
